sensor_id;sensor_type;location;lat;lon;timestamp;pressure;altitude;pressure_sealevel;temperature;humidity
49723;BME280;43484;43.608;1.458;2024-03-02T00:00:31;98803.31;;;9.25;100.00
49723;BME280;43484;43.608;1.458;2024-03-02T00:02:58;98792.03;;;9.14;100.00
49723;BME280;43484;43.608;1.458;2024-03-02T00:05:24;98774.91;;;9.08;100.00
49723;BME280;43484;43.608;1.458;2024-03-02T00:10:23;98762.09;;;9.05;100.00
49723;BME280;43484;43.608;1.458;2024-03-02T00:12:58;98753.69;;;9.12;100.00
49723;BME280;43484;43.608;1.458;2024-03-02T00:15:46;98746.88;;;9.13;100.00
49723;BME280;43484;43.608;1.458;2024-03-02T00:18:18;98733.34;;;9.17;100.00
49723;BME280;43484;43.608;1.458;2024-03-02T00:20:45;98724.00;;;9.19;100.00
49723;BME280;43484;43.608;1.458;2024-03-02T00:23:15;98707.03;;;9.22;100.00
49723;BME280;43484;43.608;1.458;2024-03-02T00:25:44;98706.22;;;9.25;100.00
49723;BME280;43484;43.608;1.458;2024-03-02T00:28:19;98714.72;;;9.24;100.00
49723;BME280;43484;43.608;1.458;2024-03-02T00:30:56;98720.72;;;9.26;100.00
49723;BME280;43484;43.608;1.458;2024-03-02T00:33:27;98706.31;;;9.29;100.00
49723;BME280;43484;43.608;1.458;2024-03-02T00:35:55;98715.69;;;9.30;100.00
49723;BME280;43484;43.608;1.458;2024-03-02T00:38:22;98716.56;;;9.32;100.00
49723;BME280;43484;43.608;1.458;2024-03-02T00:40:49;98717.41;;;9.33;100.00
49723;BME280;43484;43.608;1.458;2024-03-02T00:46:18;98714.06;;;9.35;100.00
49723;BME280;43484;43.608;1.458;2024-03-02T00:48:53;98703.84;;;9.35;100.00
49723;BME280;43484;43.608;1.458;2024-03-02T00:51:22;98709.94;;;9.45;100.00
49723;BME280;43484;43.608;1.458;2024-03-02T00:53:50;98714.22;;;9.44;100.00
49723;BME280;43484;43.608;1.458;2024-03-02T00:56:17;98718.53;;;9.48;100.00
49723;BME280;43484;43.608;1.458;2024-03-02T00:58:44;98733.91;;;9.51;100.00
49723;BME280;43484;43.608;1.458;2024-03-02T01:01:11;98728.03;;;9.57;100.00
49723;BME280;43484;43.608;1.458;2024-03-02T01:03:38;98728.94;;;9.59;100.00
49723;BME280;43484;43.608;1.458;2024-03-02T01:06:05;98722.16;;;9.61;100.00
49723;BME280;43484;43.608;1.458;2024-03-02T01:11:05;98757.25;;;9.71;100.00
49723;BME280;43484;43.608;1.458;2024-03-02T01:13:31;98761.56;;;9.75;100.00
49723;BME280;43484;43.608;1.458;2024-03-02T01:15:58;98757.31;;;9.77;100.00
49723;BME280;43484;43.608;1.458;2024-03-02T01:18:26;98743.75;;;9.79;100.00
49723;BME280;43484;43.608;1.458;2024-03-02T01:20:53;98737.78;;;9.80;100.00
49723;BME280;43484;43.608;1.458;2024-03-02T01:23:22;98742.91;;;9.82;100.00
49723;BME280;43484;43.608;1.458;2024-03-02T01:25:51;98736.09;;;9.81;100.00
49723;BME280;43484;43.608;1.458;2024-03-02T01:28:18;98740.28;;;9.77;100.00
49723;BME280;43484;43.608;1.458;2024-03-02T01:30:47;98736.81;;;9.74;100.00
49723;BME280;43484;43.608;1.458;2024-03-02T01:33:16;98714.63;;;9.73;100.00
49723;BME280;43484;43.608;1.458;2024-03-02T01:35:44;98708.63;;;9.69;100.00
49723;BME280;43484;43.608;1.458;2024-03-02T01:38:11;98714.56;;;9.68;100.00
49723;BME280;43484;43.608;1.458;2024-03-02T01:40:38;98696.69;;;9.70;100.00
49723;BME280;43484;43.608;1.458;2024-03-02T01:43:05;98680.47;;;9.68;100.00
49723;BME280;43484;43.608;1.458;2024-03-02T01:45:33;98679.63;;;9.67;100.00
49723;BME280;43484;43.608;1.458;2024-03-02T01:48:02;98688.09;;;9.65;100.00
49723;BME280;43484;43.608;1.458;2024-03-02T01:50:31;98676.19;;;9.65;100.00
49723;BME280;43484;43.608;1.458;2024-03-02T01:52:59;98660.81;;;9.64;100.00
49723;BME280;43484;43.608;1.458;2024-03-02T01:55:26;98655.72;;;9.64;100.00
49723;BME280;43484;43.608;1.458;2024-03-02T01:57:53;98654.81;;;9.60;100.00
49723;BME280;43484;43.608;1.458;2024-03-02T02:00:21;98647.09;;;9.57;100.00
49723;BME280;43484;43.608;1.458;2024-03-02T02:02:49;98647.84;;;9.52;100.00
49723;BME280;43484;43.608;1.458;2024-03-02T02:05:16;98652.06;;;9.48;100.00
49723;BME280;43484;43.608;1.458;2024-03-02T02:07:43;98650.31;;;9.44;100.00
49723;BME280;43484;43.608;1.458;2024-03-02T02:10:10;98652.81;;;9.41;100.00
49723;BME280;43484;43.608;1.458;2024-03-02T02:12:37;98658.03;;;9.47;100.00
49723;BME280;43484;43.608;1.458;2024-03-02T02:15:21;98637.63;;;9.52;100.00
49723;BME280;43484;43.608;1.458;2024-03-02T02:17:49;98635.06;;;9.52;100.00
49723;BME280;43484;43.608;1.458;2024-03-02T02:20:16;98635.03;;;9.49;100.00
49723;BME280;43484;43.608;1.458;2024-03-02T02:23:12;98624.84;;;9.50;100.00
49723;BME280;43484;43.608;1.458;2024-03-02T02:25:40;98614.59;;;9.49;100.00
49723;BME280;43484;43.608;1.458;2024-03-02T02:28:06;98612.06;;;9.50;100.00
49723;BME280;43484;43.608;1.458;2024-03-02T02:30:33;98589.03;;;9.49;100.00
49723;BME280;43484;43.608;1.458;2024-03-02T02:33:00;98578.84;;;9.52;100.00
49723;BME280;43484;43.608;1.458;2024-03-02T02:35:27;98560.91;;;9.49;100.00
49723;BME280;43484;43.608;1.458;2024-03-02T02:37:55;98551.56;;;9.51;100.00
49723;BME280;43484;43.608;1.458;2024-03-02T02:40:22;98533.72;;;9.55;100.00
49723;BME280;43484;43.608;1.458;2024-03-02T02:42:50;98535.38;;;9.52;100.00
49723;BME280;43484;43.608;1.458;2024-03-02T02:45:19;98532.78;;;9.47;100.00
49723;BME280;43484;43.608;1.458;2024-03-02T02:47:46;98519.13;;;9.45;100.00
49723;BME280;43484;43.608;1.458;2024-03-02T02:50:12;98507.97;;;9.40;100.00
49723;BME280;43484;43.608;1.458;2024-03-02T02:52:40;98505.28;;;9.31;100.00
49723;BME280;43484;43.608;1.458;2024-03-02T02:55:09;98501.81;;;9.26;100.00
49723;BME280;43484;43.608;1.458;2024-03-02T02:57:37;98484.78;;;9.25;100.00
49723;BME280;43484;43.608;1.458;2024-03-02T03:00:07;98477.16;;;9.30;100.00
49723;BME280;43484;43.608;1.458;2024-03-02T03:02:41;98477.91;;;9.23;100.00
49723;BME280;43484;43.608;1.458;2024-03-02T03:05:09;98472.81;;;9.23;100.00
49723;BME280;43484;43.608;1.458;2024-03-02T03:07:37;98469.34;;;9.18;100.00
49723;BME280;43484;43.608;1.458;2024-03-02T03:10:04;98458.31;;;9.19;100.00
49723;BME280;43484;43.608;1.458;2024-03-02T03:12:32;98447.94;;;9.10;100.00
49723;BME280;43484;43.608;1.458;2024-03-02T03:14:59;98447.00;;;9.02;100.00
49723;BME280;43484;43.608;1.458;2024-03-02T03:17:26;98440.09;;;8.96;100.00
49723;BME280;43484;43.608;1.458;2024-03-02T03:19:53;98426.38;;;8.88;100.00
49723;BME280;43484;43.608;1.458;2024-03-02T03:22:21;98418.66;;;8.82;100.00
49723;BME280;43484;43.608;1.458;2024-03-02T03:24:48;98412.69;;;8.83;100.00
49723;BME280;43484;43.608;1.458;2024-03-02T03:27:14;98386.28;;;8.81;100.00
49723;BME280;43484;43.608;1.458;2024-03-02T03:29:41;98377.69;;;8.74;100.00
49723;BME280;43484;43.608;1.458;2024-03-02T03:32:08;98360.66;;;8.73;100.00
49723;BME280;43484;43.608;1.458;2024-03-02T03:34:35;98361.44;;;8.66;100.00
49723;BME280;43484;43.608;1.458;2024-03-02T03:37:02;98350.28;;;8.61;100.00
49723;BME280;43484;43.608;1.458;2024-03-02T03:39:29;98346.81;;;8.56;100.00
49723;BME280;43484;43.608;1.458;2024-03-02T03:41:55;98339.16;;;8.56;100.00
49723;BME280;43484;43.608;1.458;2024-03-02T03:44:22;98328.94;;;8.53;100.00
49723;BME280;43484;43.608;1.458;2024-03-02T03:46:49;98322.13;;;8.54;100.00
49723;BME280;43484;43.608;1.458;2024-03-02T03:49:15;98314.44;;;8.52;100.00
49723;BME280;43484;43.608;1.458;2024-03-02T03:51:42;98297.41;;;8.50;100.00
49723;BME280;43484;43.608;1.458;2024-03-02T03:54:09;98296.63;;;8.54;100.00
49723;BME280;43484;43.608;1.458;2024-03-02T03:56:38;98290.66;;;8.53;100.00
49723;BME280;43484;43.608;1.458;2024-03-02T03:59:04;98281.25;;;8.51;100.00
49723;BME280;43484;43.608;1.458;2024-03-02T04:01:31;98271.88;;;8.48;100.00
49723;BME280;43484;43.608;1.458;2024-03-02T04:03:58;98272.75;;;8.50;100.00
49723;BME280;43484;43.608;1.458;2024-03-02T04:06:25;98265.03;;;8.47;100.00
49723;BME280;43484;43.608;1.458;2024-03-02T04:08:52;98266.75;;;8.48;100.00
49723;BME280;43484;43.608;1.458;2024-03-02T04:11:18;98256.50;;;8.44;100.00
49723;BME280;43484;43.608;1.458;2024-03-02T04:13:45;98253.91;;;8.42;100.00
49723;BME280;43484;43.608;1.458;2024-03-02T04:16:12;98253.91;;;8.42;100.00
49723;BME280;43484;43.608;1.458;2024-03-02T04:18:38;98246.31;;;8.44;100.00
49723;BME280;43484;43.608;1.458;2024-03-02T04:21:06;98248.16;;;8.55;100.00
49723;BME280;43484;43.608;1.458;2024-03-02T04:23:32;98254.03;;;8.51;100.00
49723;BME280;43484;43.608;1.458;2024-03-02T04:25:59;98258.22;;;8.46;100.00
49723;BME280;43484;43.608;1.458;2024-03-02T04:28:26;98259.06;;;8.44;100.00
49723;BME280;43484;43.608;1.458;2024-03-02T04:30:53;98242.88;;;8.43;100.00
49723;BME280;43484;43.608;1.458;2024-03-02T04:33:20;98244.72;;;8.53;100.00
49723;BME280;43484;43.608;1.458;2024-03-02T04:35:47;98251.47;;;8.50;100.00
49723;BME280;43484;43.608;1.458;2024-03-02T04:38:13;98248.97;;;8.54;100.00
49723;BME280;43484;43.608;1.458;2024-03-02T04:40:40;98260.03;;;8.55;100.00
49723;BME280;43484;43.608;1.458;2024-03-02T04:43:06;98263.38;;;8.49;100.00
49723;BME280;43484;43.608;1.458;2024-03-02T04:45:38;98265.94;;;8.52;100.00
49723;BME280;43484;43.608;1.458;2024-03-02T04:48:05;98261.81;;;8.60;100.00
49723;BME280;43484;43.608;1.458;2024-03-02T04:50:32;98261.75;;;8.56;100.00
49723;BME280;43484;43.608;1.458;2024-03-02T04:52:58;98254.16;;;8.60;100.00
49723;BME280;43484;43.608;1.458;2024-03-02T04:55:25;98260.09;;;8.59;100.00
49723;BME280;43484;43.608;1.458;2024-03-02T04:58:11;98265.91;;;8.49;100.00
49723;BME280;43484;43.608;1.458;2024-03-02T05:00:38;98263.31;;;8.45;100.00
49723;BME280;43484;43.608;1.458;2024-03-02T05:03:05;98250.72;;;8.57;100.00
49723;BME280;43484;43.608;1.458;2024-03-02T05:05:31;98252.47;;;8.62;100.00
49723;BME280;43484;43.608;1.458;2024-03-02T05:07:58;98258.34;;;8.55;100.00
49723;BME280;43484;43.608;1.458;2024-03-02T05:10:24;98257.47;;;8.52;100.00
49723;BME280;43484;43.608;1.458;2024-03-02T05:12:51;98255.66;;;8.45;100.00
49723;BME280;43484;43.608;1.458;2024-03-02T05:15:26;98252.19;;;8.40;100.00
49723;BME280;43484;43.608;1.458;2024-03-02T05:17:52;98250.44;;;8.37;100.00
49723;BME280;43484;43.608;1.458;2024-03-02T05:20:20;98235.13;;;8.36;100.00
49723;BME280;43484;43.608;1.458;2024-03-02T05:22:47;98235.22;;;8.40;100.00
49723;BME280;43484;43.608;1.458;2024-03-02T05:25:13;98230.13;;;8.43;100.00
49723;BME280;43484;43.608;1.458;2024-03-02T05:27:40;98222.53;;;8.48;100.00
49723;BME280;43484;43.608;1.458;2024-03-02T05:30:08;98226.81;;;8.49;100.00
49723;BME280;43484;43.608;1.458;2024-03-02T05:32:35;98220.84;;;8.50;100.00
49723;BME280;43484;43.608;1.458;2024-03-02T05:35:01;98214.00;;;8.47;100.00
49723;BME280;43484;43.608;1.458;2024-03-02T05:37:29;98216.53;;;8.44;100.00
49723;BME280;43484;43.608;1.458;2024-03-02T05:39:56;98218.44;;;8.60;100.00
49723;BME280;43484;43.608;1.458;2024-03-02T05:42:23;98213.34;;;8.63;100.00
49723;BME280;43484;43.608;1.458;2024-03-02T05:44:49;98221.81;;;8.61;100.00
49723;BME280;43484;43.608;1.458;2024-03-02T05:47:16;98233.66;;;8.54;100.00
49723;BME280;43484;43.608;1.458;2024-03-02T05:49:43;98231.91;;;8.49;100.00
49723;BME280;43484;43.608;1.458;2024-03-02T05:52:09;98230.31;;;8.58;100.00
49723;BME280;43484;43.608;1.458;2024-03-02T05:54:38;98226.03;;;8.57;100.00
49723;BME280;43484;43.608;1.458;2024-03-02T05:57:05;98215.03;;;8.61;100.00
49723;BME280;43484;43.608;1.458;2024-03-02T06:00:11;98213.19;;;8.50;100.00
49723;BME280;43484;43.608;1.458;2024-03-02T06:02:40;98203.00;;;8.51;100.00
49723;BME280;43484;43.608;1.458;2024-03-02T06:05:07;98201.22;;;8.46;100.00
49723;BME280;43484;43.608;1.458;2024-03-02T06:07:34;98196.06;;;8.40;100.00
49723;BME280;43484;43.608;1.458;2024-03-02T06:10:00;98185.00;;;8.41;100.00
49723;BME280;43484;43.608;1.458;2024-03-02T06:12:27;98179.97;;;8.45;100.00
49723;BME280;43484;43.608;1.458;2024-03-02T06:14:54;98164.69;;;8.45;100.00
49723;BME280;43484;43.608;1.458;2024-03-02T06:17:20;98162.16;;;8.48;100.00
49723;BME280;43484;43.608;1.458;2024-03-02T06:19:47;98164.72;;;8.51;100.00
49723;BME280;43484;43.608;1.458;2024-03-02T06:22:14;98172.41;;;8.54;100.00
49723;BME280;43484;43.608;1.458;2024-03-02T06:24:40;98172.41;;;8.54;100.00
49723;BME280;43484;43.608;1.458;2024-03-02T06:27:07;98156.19;;;8.48;100.00
49723;BME280;43484;43.608;1.458;2024-03-02T06:29:34;98139.09;;;8.42;100.00
49723;BME280;43484;43.608;1.458;2024-03-02T06:32:00;98139.97;;;8.44;100.00
49723;BME280;43484;43.608;1.458;2024-03-02T06:34:27;98140.72;;;8.34;100.00
49723;BME280;43484;43.608;1.458;2024-03-02T06:36:54;98129.50;;;8.20;100.00
49723;BME280;43484;43.608;1.458;2024-03-02T06:39:21;98121.94;;;8.26;100.00
49723;BME280;43484;43.608;1.458;2024-03-02T06:41:47;98104.06;;;8.26;100.00
49723;BME280;43484;43.608;1.458;2024-03-02T06:44:14;98107.56;;;8.34;100.00
49723;BME280;43484;43.608;1.458;2024-03-02T06:46:41;98111.84;;;8.35;100.00
49723;BME280;43484;43.608;1.458;2024-03-02T06:49:07;98107.53;;;8.31;100.00
49723;BME280;43484;43.608;1.458;2024-03-02T06:51:36;98098.97;;;8.26;100.00
49723;BME280;43484;43.608;1.458;2024-03-02T06:54:03;98091.31;;;8.26;100.00
49723;BME280;43484;43.608;1.458;2024-03-02T06:56:29;98082.91;;;8.36;100.00
49723;BME280;43484;43.608;1.458;2024-03-02T06:58:57;98085.34;;;8.24;100.00
49723;BME280;43484;43.608;1.458;2024-03-02T07:01:23;98072.69;;;8.33;100.00
49723;BME280;43484;43.608;1.458;2024-03-02T07:03:52;98076.06;;;8.32;100.00
49723;BME280;43484;43.608;1.458;2024-03-02T07:06:19;98066.66;;;8.24;100.00
49723;BME280;43484;43.608;1.458;2024-03-02T07:08:46;98058.94;;;8.22;100.00
49723;BME280;43484;43.608;1.458;2024-03-02T07:11:13;98053.94;;;8.30;100.00
49723;BME280;43484;43.608;1.458;2024-03-02T07:13:40;98060.81;;;8.34;100.00
49723;BME280;43484;43.608;1.458;2024-03-02T07:16:06;98058.19;;;8.28;100.00
49723;BME280;43484;43.608;1.458;2024-03-02T07:18:54;98048.88;;;8.36;100.00
49723;BME280;43484;43.608;1.458;2024-03-02T07:21:23;98053.22;;;8.43;100.00
49723;BME280;43484;43.608;1.458;2024-03-02T07:23:49;98049.78;;;8.39;100.00
49723;BME280;43484;43.608;1.458;2024-03-02T07:26:16;98057.50;;;8.45;100.00
49723;BME280;43484;43.608;1.458;2024-03-02T07:28:48;98054.97;;;8.45;100.00
49723;BME280;43484;43.608;1.458;2024-03-02T07:31:15;98053.16;;;8.34;100.00
49723;BME280;43484;43.608;1.458;2024-03-02T07:33:45;98050.75;;;8.49;100.00
49723;BME280;43484;43.608;1.458;2024-03-02T07:36:13;98062.69;;;8.56;100.00
49723;BME280;43484;43.608;1.458;2024-03-02T07:38:39;98058.41;;;8.50;100.00
49723;BME280;43484;43.608;1.458;2024-03-02T07:41:08;98050.78;;;8.53;100.00
49723;BME280;43484;43.608;1.458;2024-03-02T07:43:34;98052.44;;;8.51;100.00
49723;BME280;43484;43.608;1.458;2024-03-02T07:46:02;98049.91;;;8.51;100.00
49723;BME280;43484;43.608;1.458;2024-03-02T07:48:29;98067.88;;;8.62;100.00
49723;BME280;43484;43.608;1.458;2024-03-02T07:50:57;98060.31;;;8.75;100.00
49723;BME280;43484;43.608;1.458;2024-03-02T07:53:24;98079.09;;;8.83;100.00
49723;BME280;43484;43.608;1.458;2024-03-02T07:55:50;98091.91;;;8.88;100.00
49723;BME280;43484;43.608;1.458;2024-03-02T07:58:17;98088.38;;;8.74;100.00
49723;BME280;43484;43.608;1.458;2024-03-02T08:00:46;98096.00;;;8.69;100.00
49723;BME280;43484;43.608;1.458;2024-03-02T08:03:13;98102.88;;;8.79;100.00
49723;BME280;43484;43.608;1.458;2024-03-02T08:05:40;98111.44;;;8.87;100.00
49723;BME280;43484;43.608;1.458;2024-03-02T08:08:07;98120.88;;;8.96;100.00
49723;BME280;43484;43.608;1.458;2024-03-02T08:10:34;98114.84;;;8.85;100.00
49723;BME280;43484;43.608;1.458;2024-03-02T08:13:01;98110.63;;;8.88;100.00
49723;BME280;43484;43.608;1.458;2024-03-02T08:15:28;98107.28;;;8.96;100.00
49723;BME280;43484;43.608;1.458;2024-03-02T08:17:54;98105.56;;;8.98;100.00
49723;BME280;43484;43.608;1.458;2024-03-02T08:20:22;98105.63;;;9.01;100.00
49723;BME280;43484;43.608;1.458;2024-03-02T08:22:49;98108.25;;;9.11;100.00
49723;BME280;43484;43.608;1.458;2024-03-02T08:25:16;98088.75;;;9.19;100.00
49723;BME280;43484;43.608;1.458;2024-03-02T08:27:43;98109.22;;;9.30;100.00
49723;BME280;43484;43.608;1.458;2024-03-02T08:30:10;98135.63;;;9.26;100.00
49723;BME280;43484;43.608;1.458;2024-03-02T08:32:37;98129.72;;;9.36;100.00
49723;BME280;43484;43.608;1.458;2024-03-02T08:35:05;98142.53;;;9.45;100.00
49723;BME280;43484;43.608;1.458;2024-03-02T08:37:32;98150.38;;;9.69;100.00
49723;BME280;43484;43.608;1.458;2024-03-02T08:39:59;98158.06;;;9.70;100.00
49723;BME280;43484;43.608;1.458;2024-03-02T08:42:26;98164.84;;;9.70;100.00
49723;BME280;43484;43.608;1.458;2024-03-02T08:44:53;98170.06;;;9.82;100.00
49723;BME280;43484;43.608;1.458;2024-03-02T08:47:19;98165.81;;;9.87;100.00
49723;BME280;43484;43.608;1.458;2024-03-02T08:49:46;98164.94;;;9.86;100.00
49723;BME280;43484;43.608;1.458;2024-03-02T08:52:12;98161.59;;;9.92;100.00
49723;BME280;43484;43.608;1.458;2024-03-02T08:54:39;98160.75;;;9.94;100.00
49723;BME280;43484;43.608;1.458;2024-03-02T08:57:06;98146.28;;;10.04;100.00
49723;BME280;43484;43.608;1.458;2024-03-02T08:59:33;98149.75;;;10.09;100.00
49723;BME280;43484;43.608;1.458;2024-03-02T09:02:00;98144.69;;;10.21;100.00
49723;BME280;43484;43.608;1.458;2024-03-02T09:04:27;98148.13;;;10.25;100.00
49723;BME280;43484;43.608;1.458;2024-03-02T09:06:59;98144.72;;;10.27;100.00
49723;BME280;43484;43.608;1.458;2024-03-02T09:09:25;98137.06;;;10.36;100.00
49723;BME280;43484;43.608;1.458;2024-03-02T09:11:52;98138.78;;;10.34;100.00
49723;BME280;43484;43.608;1.458;2024-03-02T09:14:21;98125.97;;;10.40;100.00
49723;BME280;43484;43.608;1.458;2024-03-02T09:16:48;98124.31;;;10.48;100.00
49723;BME280;43484;43.608;1.458;2024-03-02T09:19:15;98124.31;;;10.54;100.00
49723;BME280;43484;43.608;1.458;2024-03-02T09:21:42;98118.34;;;10.67;100.00
49723;BME280;43484;43.608;1.458;2024-03-02T09:24:10;98124.34;;;10.86;100.00
49723;BME280;43484;43.608;1.458;2024-03-02T09:26:40;98127.78;;;10.95;100.00
49723;BME280;43484;43.608;1.458;2024-03-02T09:29:07;98134.59;;;11.04;100.00
49723;BME280;43484;43.608;1.458;2024-03-02T09:31:43;98136.31;;;10.90;100.00
49723;BME280;43484;43.608;1.458;2024-03-02T09:34:09;98137.16;;;10.87;100.00
49723;BME280;43484;43.608;1.458;2024-03-02T09:36:36;98125.22;;;10.83;100.00
49723;BME280;43484;43.608;1.458;2024-03-02T09:39:03;98126.94;;;10.96;100.00
49723;BME280;43484;43.608;1.458;2024-03-02T09:41:31;98110.72;;;10.88;100.00
49723;BME280;43484;43.608;1.458;2024-03-02T09:43:59;98099.59;;;10.91;100.00
49723;BME280;43484;43.608;1.458;2024-03-02T09:46:26;98095.34;;;10.90;100.00
49723;BME280;43484;43.608;1.458;2024-03-02T09:48:53;98079.94;;;10.85;100.00
49723;BME280;43484;43.608;1.458;2024-03-02T09:51:20;98072.25;;;10.99;100.00
49723;BME280;43484;43.608;1.458;2024-03-02T09:53:47;98066.28;;;11.03;100.00
49723;BME280;43484;43.608;1.458;2024-03-02T09:56:14;98066.31;;;10.88;100.00
49723;BME280;43484;43.608;1.458;2024-03-02T09:58:42;98056.06;;;10.86;100.00
49723;BME280;43484;43.608;1.458;2024-03-02T10:01:11;98058.63;;;10.89;100.00
49723;BME280;43484;43.608;1.458;2024-03-02T10:03:38;98056.91;;;10.97;100.00
49723;BME280;43484;43.608;1.458;2024-03-02T10:06:26;98050.91;;;10.95;100.00
49723;BME280;43484;43.608;1.458;2024-03-02T10:08:53;98048.38;;;11.00;100.00
49723;BME280;43484;43.608;1.458;2024-03-02T10:14:08;98043.22;;;11.06;100.00
49723;BME280;43484;43.608;1.458;2024-03-02T10:16:36;98038.94;;;11.11;100.00
49723;BME280;43484;43.608;1.458;2024-03-02T10:19:20;98032.13;;;11.05;100.00
49723;BME280;43484;43.608;1.458;2024-03-02T10:21:52;98011.63;;;11.08;100.00
49723;BME280;43484;43.608;1.458;2024-03-02T10:24:22;97999.66;;;11.18;100.00
49723;BME280;43484;43.608;1.458;2024-03-02T10:26:49;97985.09;;;11.33;100.00
49723;BME280;43484;43.608;1.458;2024-03-02T10:29:17;97983.41;;;11.26;100.00
49723;BME280;43484;43.608;1.458;2024-03-02T10:31:45;97983.41;;;11.26;100.00
49723;BME280;43484;43.608;1.458;2024-03-02T10:34:13;97966.28;;;11.25;100.00
49723;BME280;43484;43.608;1.458;2024-03-02T10:36:42;97957.72;;;11.40;100.00
49723;BME280;43484;43.608;1.458;2024-03-02T10:39:09;97953.41;;;11.50;100.00
49723;BME280;43484;43.608;1.458;2024-03-02T10:41:38;97955.94;;;11.51;100.00
49723;BME280;43484;43.608;1.458;2024-03-02T10:44:06;97948.19;;;11.68;100.00
49723;BME280;43484;43.608;1.458;2024-03-02T10:46:34;97953.31;;;11.74;100.00
49723;BME280;43484;43.608;1.458;2024-03-02T10:49:03;97948.94;;;11.88;100.00
49723;BME280;43484;43.608;1.458;2024-03-02T10:51:34;97954.97;;;11.84;100.00
49723;BME280;43484;43.608;1.458;2024-03-02T10:54:03;97949.84;;;11.84;100.00
49723;BME280;43484;43.608;1.458;2024-03-02T11:01:56;97954.78;;;12.09;100.00
49723;BME280;43484;43.608;1.458;2024-03-02T11:04:31;97952.16;;;12.18;100.00
49723;BME280;43484;43.608;1.458;2024-03-02T11:07:07;97957.22;;;12.32;100.00
49723;BME280;43484;43.608;1.458;2024-03-02T11:09:49;97959.78;;;12.27;100.00
49723;BME280;43484;43.608;1.458;2024-03-02T11:12:23;97961.41;;;12.42;100.00
49723;BME280;43484;43.608;1.458;2024-03-02T11:14:51;97960.50;;;12.49;100.00
49723;BME280;43484;43.608;1.458;2024-03-02T11:17:19;97966.41;;;12.57;100.00
49723;BME280;43484;43.608;1.458;2024-03-02T11:19:46;97978.31;;;12.67;100.00
49723;BME280;43484;43.608;1.458;2024-03-02T11:22:15;97985.16;;;12.67;100.00
49723;BME280;43484;43.608;1.458;2024-03-02T11:24:52;97983.53;;;12.56;100.00
49723;BME280;43484;43.608;1.458;2024-03-02T11:33:02;97965.41;;;12.73;100.00
49723;BME280;43484;43.608;1.458;2024-03-02T11:35:41;97961.16;;;12.72;100.00
49723;BME280;43484;43.608;1.458;2024-03-02T11:38:15;97951.59;;;12.83;100.00
49723;BME280;43484;43.608;1.458;2024-03-02T11:40:42;97950.75;;;12.84;100.00
49723;BME280;43484;43.608;1.458;2024-03-02T11:43:09;97947.44;;;12.72;100.00
49723;BME280;43484;43.608;1.458;2024-03-02T11:45:36;97936.22;;;12.80;100.00
49723;BME280;43484;43.608;1.458;2024-03-02T11:48:08;97933.56;;;12.89;100.00
49723;BME280;43484;43.608;1.458;2024-03-02T11:50:47;97920.63;;;12.98;100.00
49723;BME280;43484;43.608;1.458;2024-03-02T11:53:15;97932.63;;;12.99;100.00
49723;BME280;43484;43.608;1.458;2024-03-02T11:55:42;97938.44;;;13.16;100.00
49723;BME280;43484;43.608;1.458;2024-03-02T11:58:14;97933.25;;;13.21;100.00
49723;BME280;43484;43.608;1.458;2024-03-02T12:00:50;97938.34;;;13.24;100.00
49723;BME280;43484;43.608;1.458;2024-03-02T12:03:18;97932.34;;;13.25;100.00
49723;BME280;43484;43.608;1.458;2024-03-02T12:05:50;97939.84;;;13.43;100.00
49723;BME280;43484;43.608;1.458;2024-03-02T12:08:18;97942.44;;;13.43;100.00
49723;BME280;43484;43.608;1.458;2024-03-02T12:10:59;97925.38;;;13.36;100.00
49723;BME280;43484;43.608;1.458;2024-03-02T12:13:27;97914.16;;;13.38;100.00
49723;BME280;43484;43.608;1.458;2024-03-02T12:15:54;97918.38;;;13.45;100.00
49723;BME280;43484;43.608;1.458;2024-03-02T12:18:25;97912.16;;;13.61;100.00
49723;BME280;43484;43.608;1.458;2024-03-02T12:20:52;97901.88;;;13.60;100.00
49723;BME280;43484;43.608;1.458;2024-03-02T12:23:19;97902.84;;;13.54;100.00
49723;BME280;43484;43.608;1.458;2024-03-02T12:25:46;97913.06;;;13.57;100.00
49723;BME280;43484;43.608;1.458;2024-03-02T12:28:13;97900.84;;;13.74;100.00
49723;BME280;43484;43.608;1.458;2024-03-02T12:30:40;97891.22;;;13.87;100.00
49723;BME280;43484;43.608;1.458;2024-03-02T12:33:07;97887.00;;;13.81;100.00
49723;BME280;43484;43.608;1.458;2024-03-02T12:35:35;97884.25;;;13.92;100.00
49723;BME280;43484;43.608;1.458;2024-03-02T12:38:02;97886.88;;;13.89;100.00
49723;BME280;43484;43.608;1.458;2024-03-02T12:40:30;97889.22;;;14.04;100.00
49723;BME280;43484;43.608;1.458;2024-03-02T12:42:58;97876.44;;;14.00;100.00
49723;BME280;43484;43.608;1.458;2024-03-02T12:45:25;97865.19;;;14.04;100.00
49723;BME280;43484;43.608;1.458;2024-03-02T12:47:52;97866.09;;;14.03;100.00
49723;BME280;43484;43.608;1.458;2024-03-02T12:50:20;97872.81;;;14.11;100.00
49723;BME280;43484;43.608;1.458;2024-03-02T12:52:54;97872.88;;;14.07;100.00
49723;BME280;43484;43.608;1.458;2024-03-02T12:55:22;97866.91;;;14.05;100.00
49723;BME280;43484;43.608;1.458;2024-03-02T12:57:51;97858.38;;;14.03;100.00
49723;BME280;43484;43.608;1.458;2024-03-02T13:00:20;97866.00;;;14.07;100.00
49723;BME280;43484;43.608;1.458;2024-03-02T13:02:49;97859.91;;;14.13;100.00
49723;BME280;43484;43.608;1.458;2024-03-02T13:05:18;97837.38;;;14.27;100.00
49723;BME280;43484;43.608;1.458;2024-03-02T13:07:47;97842.25;;;14.42;100.00
49723;BME280;43484;43.608;1.458;2024-03-02T13:10:15;97848.50;;;14.29;100.00
49723;BME280;43484;43.608;1.458;2024-03-02T13:12:42;97847.69;;;14.28;100.00
49723;BME280;43484;43.608;1.458;2024-03-02T13:15:09;97854.50;;;14.31;100.00
49723;BME280;43484;43.608;1.458;2024-03-02T13:17:41;97858.66;;;14.38;100.00
49723;BME280;43484;43.608;1.458;2024-03-02T13:20:08;97822.59;;;14.38;100.00
49723;BME280;43484;43.608;1.458;2024-03-02T13:22:37;97830.41;;;14.33;100.00
49723;BME280;43484;43.608;1.458;2024-03-02T13:25:04;97832.28;;;14.22;100.00